<?xml version="1.0" encoding="UTF-8" standalone="no" ?>
<gpx xmlns="http://www.topografix.com/GPX/1/1" xmlns:xsi="http://www.w3.org/2001/XMLSchema-instance" xsi:schemaLocation="http://www.topografix.com/GPX/1/1 http://www.topografix.com/GPX/1/1/gpx.xsd" version="1.1" creator="VisuGPX - https://www.visugpx.com">
  <metadata>
    <name>Puy Griou      </name>
    <desc><![CDATA[Itineraire simple pour le Puy Griou. ]]></desc>
  </metadata>
  <trk>
    <name><![CDATA[20180915224428-cLEGA]]></name>
    <trkseg>
      <trkpt lat="45.07184" lon="2.71465">
        <ele>1143.26</ele>
        <time>2015-07-16T07:22:32Z</time>
      </trkpt>
      <trkpt lat="45.07171" lon="2.71445">
        <ele>1165.5</ele>
        <time>2015-07-16T07:23:08Z</time>
      </trkpt>
      <trkpt lat="45.07155" lon="2.71432">
        <ele>1156.63</ele>
        <time>2015-07-16T07:23:36Z</time>
      </trkpt>
      <trkpt lat="45.07138" lon="2.71423">
        <ele>1162.82</ele>
        <time>2015-07-16T07:24:08Z</time>
      </trkpt>
      <trkpt lat="45.07133" lon="2.71396">
        <ele>1167.24</ele>
        <time>2015-07-16T07:24:32Z</time>
      </trkpt>
      <trkpt lat="45.07125" lon="2.71373">
        <ele>1167.68</ele>
        <time>2015-07-16T07:24:45Z</time>
      </trkpt>
      <trkpt lat="45.07122" lon="2.71348">
        <ele>1168.42</ele>
        <time>2015-07-16T07:24:59Z</time>
      </trkpt>
      <trkpt lat="45.07103" lon="2.7134">
        <ele>1179.63</ele>
        <time>2015-07-16T07:25:14Z</time>
      </trkpt>
      <trkpt lat="45.0709" lon="2.71321">
        <ele>1195.82</ele>
        <time>2015-07-16T07:25:30Z</time>
      </trkpt>
      <trkpt lat="45.07073" lon="2.71329">
        <ele>1185.75</ele>
        <time>2015-07-16T07:25:42Z</time>
      </trkpt>
      <trkpt lat="45.07061" lon="2.71305">
        <ele>1176.35</ele>
        <time>2015-07-16T07:25:58Z</time>
      </trkpt>
      <trkpt lat="45.07059" lon="2.71279">
        <ele>1165.47</ele>
        <time>2015-07-16T07:26:11Z</time>
      </trkpt>
      <trkpt lat="45.0707" lon="2.71258">
        <ele>1155.98</ele>
        <time>2015-07-16T07:26:29Z</time>
      </trkpt>
      <trkpt lat="45.07081" lon="2.71279">
        <ele>1139.42</ele>
        <time>2015-07-16T07:26:55Z</time>
      </trkpt>
      <trkpt lat="45.07097" lon="2.71294">
        <ele>1125.03</ele>
        <time>2015-07-16T07:29:40Z</time>
      </trkpt>
      <trkpt lat="45.07112" lon="2.71309">
        <ele>1132.62</ele>
        <time>2015-07-16T07:30:04Z</time>
      </trkpt>
      <trkpt lat="45.07127" lon="2.71322">
        <ele>1132.48</ele>
        <time>2015-07-16T07:30:23Z</time>
      </trkpt>
      <trkpt lat="45.07145" lon="2.71328">
        <ele>1131.57</ele>
        <time>2015-07-16T07:30:39Z</time>
      </trkpt>
      <trkpt lat="45.07164" lon="2.71333">
        <ele>1130.59</ele>
        <time>2015-07-16T07:30:57Z</time>
      </trkpt>
      <trkpt lat="45.07182" lon="2.71329">
        <ele>1132.13</ele>
        <time>2015-07-16T07:31:43Z</time>
      </trkpt>
      <trkpt lat="45.07201" lon="2.7132">
        <ele>1132.97</ele>
        <time>2015-07-16T07:32:17Z</time>
      </trkpt>
      <trkpt lat="45.0722" lon="2.71319">
        <ele>1133.17</ele>
        <time>2015-07-16T07:32:38Z</time>
      </trkpt>
      <trkpt lat="45.07237" lon="2.71312">
        <ele>1134.12</ele>
        <time>2015-07-16T07:33:01Z</time>
      </trkpt>
      <trkpt lat="45.07229" lon="2.71287">
        <ele>1138.5</ele>
        <time>2015-07-16T07:34:07Z</time>
      </trkpt>
      <trkpt lat="45.07212" lon="2.71279">
        <ele>1142.91</ele>
        <time>2015-07-16T07:34:34Z</time>
      </trkpt>
      <trkpt lat="45.07192" lon="2.71265">
        <ele>1148.19</ele>
        <time>2015-07-16T07:35:08Z</time>
      </trkpt>
      <trkpt lat="45.07178" lon="2.71248">
        <ele>1154.92</ele>
        <time>2015-07-16T07:35:31Z</time>
      </trkpt>
      <trkpt lat="45.07165" lon="2.7123">
        <ele>1159.7</ele>
        <time>2015-07-16T07:36:02Z</time>
      </trkpt>
      <trkpt lat="45.0716" lon="2.71205">
        <ele>1161.39</ele>
        <time>2015-07-16T07:36:29Z</time>
      </trkpt>
      <trkpt lat="45.07173" lon="2.71181">
        <ele>1164.05</ele>
        <time>2015-07-16T07:37:13Z</time>
      </trkpt>
      <trkpt lat="45.07186" lon="2.71163">
        <ele>1165.59</ele>
        <time>2015-07-16T07:37:51Z</time>
      </trkpt>
      <trkpt lat="45.07201" lon="2.71148">
        <ele>1167.24</ele>
        <time>2015-07-16T07:38:15Z</time>
      </trkpt>
      <trkpt lat="45.07218" lon="2.71144">
        <ele>1169.67</ele>
        <time>2015-07-16T07:38:51Z</time>
      </trkpt>
      <trkpt lat="45.07222" lon="2.7117">
        <ele>1171.44</ele>
        <time>2015-07-16T07:39:24Z</time>
      </trkpt>
      <trkpt lat="45.07238" lon="2.71183">
        <ele>1172.42</ele>
        <time>2015-07-16T07:39:54Z</time>
      </trkpt>
      <trkpt lat="45.07254" lon="2.71194">
        <ele>1173.46</ele>
        <time>2015-07-16T07:40:25Z</time>
      </trkpt>
      <trkpt lat="45.07271" lon="2.71204">
        <ele>1174.93</ele>
        <time>2015-07-16T07:41:01Z</time>
      </trkpt>
      <trkpt lat="45.07288" lon="2.71213">
        <ele>1176.85</ele>
        <time>2015-07-16T07:41:45Z</time>
      </trkpt>
      <trkpt lat="45.07307" lon="2.71215">
        <ele>1176.83</ele>
        <time>2015-07-16T07:42:10Z</time>
      </trkpt>
      <trkpt lat="45.07325" lon="2.71216">
        <ele>1177</ele>
        <time>2015-07-16T07:42:40Z</time>
      </trkpt>
      <trkpt lat="45.07316" lon="2.71193">
        <ele>1184.53</ele>
        <time>2015-07-16T07:45:04Z</time>
      </trkpt>
      <trkpt lat="45.07298" lon="2.71187">
        <ele>1189.29</ele>
        <time>2015-07-16T07:45:31Z</time>
      </trkpt>
      <trkpt lat="45.07291" lon="2.71163">
        <ele>1195.68</ele>
        <time>2015-07-16T07:46:06Z</time>
      </trkpt>
      <trkpt lat="45.0729" lon="2.71137">
        <ele>1203.47</ele>
        <time>2015-07-16T07:46:54Z</time>
      </trkpt>
      <trkpt lat="45.073" lon="2.71116">
        <ele>1206.94</ele>
        <time>2015-07-16T07:47:16Z</time>
      </trkpt>
      <trkpt lat="45.07309" lon="2.71093">
        <ele>1209.3</ele>
        <time>2015-07-16T07:47:40Z</time>
      </trkpt>
      <trkpt lat="45.07318" lon="2.7107">
        <ele>1215.26</ele>
        <time>2015-07-16T07:49:59Z</time>
      </trkpt>
      <trkpt lat="45.0733" lon="2.7105">
        <ele>1217.71</ele>
        <time>2015-07-16T07:50:18Z</time>
      </trkpt>
      <trkpt lat="45.07333" lon="2.71025">
        <ele>1219.97</ele>
        <time>2015-07-16T07:50:40Z</time>
      </trkpt>
      <trkpt lat="45.07331" lon="2.70999">
        <ele>1222.33</ele>
        <time>2015-07-16T07:51:01Z</time>
      </trkpt>
      <trkpt lat="45.07333" lon="2.70973">
        <ele>1225.43</ele>
        <time>2015-07-16T07:51:24Z</time>
      </trkpt>
      <trkpt lat="45.0733" lon="2.70947">
        <ele>1227.76</ele>
        <time>2015-07-16T07:51:45Z</time>
      </trkpt>
      <trkpt lat="45.07326" lon="2.70922">
        <ele>1230.62</ele>
        <time>2015-07-16T07:52:12Z</time>
      </trkpt>
      <trkpt lat="45.07323" lon="2.70896">
        <ele>1234.27</ele>
        <time>2015-07-16T07:52:44Z</time>
      </trkpt>
      <trkpt lat="45.07326" lon="2.70871">
        <ele>1235.22</ele>
        <time>2015-07-16T07:53:07Z</time>
      </trkpt>
      <trkpt lat="45.07329" lon="2.70846">
        <ele>1235.17</ele>
        <time>2015-07-16T07:54:01Z</time>
      </trkpt>
      <trkpt lat="45.07318" lon="2.70825">
        <ele>1235.17</ele>
        <time>2015-07-16T07:54:24Z</time>
      </trkpt>
      <trkpt lat="45.07299" lon="2.7082">
        <ele>1235.03</ele>
        <time>2015-07-16T07:54:50Z</time>
      </trkpt>
      <trkpt lat="45.0728" lon="2.70815">
        <ele>1238.69</ele>
        <time>2015-07-16T07:55:56Z</time>
      </trkpt>
      <trkpt lat="45.07267" lon="2.70796">
        <ele>1247.74</ele>
        <time>2015-07-16T07:58:26Z</time>
      </trkpt>
      <trkpt lat="45.07265" lon="2.70771">
        <ele>1249.46</ele>
        <time>2015-07-16T07:58:42Z</time>
      </trkpt>
      <trkpt lat="45.07267" lon="2.70745">
        <ele>1251.5</ele>
        <time>2015-07-16T07:58:59Z</time>
      </trkpt>
      <trkpt lat="45.0727" lon="2.7072">
        <ele>1253.47</ele>
        <time>2015-07-16T07:59:27Z</time>
      </trkpt>
      <trkpt lat="45.07273" lon="2.70694">
        <ele>1255.43</ele>
        <time>2015-07-16T07:59:52Z</time>
      </trkpt>
      <trkpt lat="45.07266" lon="2.7067">
        <ele>1257.18</ele>
        <time>2015-07-16T08:00:16Z</time>
      </trkpt>
      <trkpt lat="45.07262" lon="2.70645">
        <ele>1260.14</ele>
        <time>2015-07-16T08:00:48Z</time>
      </trkpt>
      <trkpt lat="45.07264" lon="2.70619">
        <ele>1263.35</ele>
        <time>2015-07-16T08:01:14Z</time>
      </trkpt>
      <trkpt lat="45.07264" lon="2.70593">
        <ele>1267.1</ele>
        <time>2015-07-16T08:01:44Z</time>
      </trkpt>
      <trkpt lat="45.07269" lon="2.70568">
        <ele>1269.26</ele>
        <time>2015-07-16T08:02:11Z</time>
      </trkpt>
      <trkpt lat="45.07277" lon="2.70545">
        <ele>1274.11</ele>
        <time>2015-07-16T08:03:22Z</time>
      </trkpt>
      <trkpt lat="45.07295" lon="2.70536">
        <ele>1275.32</ele>
        <time>2015-07-16T08:03:51Z</time>
      </trkpt>
      <trkpt lat="45.07306" lon="2.70515">
        <ele>1274.83</ele>
        <time>2015-07-16T08:04:18Z</time>
      </trkpt>
      <trkpt lat="45.0732" lon="2.70499">
        <ele>1276.17</ele>
        <time>2015-07-16T08:04:50Z</time>
      </trkpt>
      <trkpt lat="45.07335" lon="2.70483">
        <ele>1277.62</ele>
        <time>2015-07-16T08:05:12Z</time>
      </trkpt>
      <trkpt lat="45.07353" lon="2.70476">
        <ele>1279.1</ele>
        <time>2015-07-16T08:05:43Z</time>
      </trkpt>
      <trkpt lat="45.07371" lon="2.70478">
        <ele>1279.43</ele>
        <time>2015-07-16T08:06:18Z</time>
      </trkpt>
      <trkpt lat="45.07389" lon="2.70482">
        <ele>1284.97</ele>
        <time>2015-07-16T08:07:18Z</time>
      </trkpt>
      <trkpt lat="45.0741" lon="2.70476">
        <ele>1289.66</ele>
        <time>2015-07-16T08:07:48Z</time>
      </trkpt>
      <trkpt lat="45.07428" lon="2.70478">
        <ele>1295.63</ele>
        <time>2015-07-16T08:08:55Z</time>
      </trkpt>
      <trkpt lat="45.07439" lon="2.70457">
        <ele>1296.97</ele>
        <time>2015-07-16T08:09:19Z</time>
      </trkpt>
      <trkpt lat="45.07456" lon="2.70448">
        <ele>1298.09</ele>
        <time>2015-07-16T08:09:42Z</time>
      </trkpt>
      <trkpt lat="45.07462" lon="2.70424">
        <ele>1298.16</ele>
        <time>2015-07-16T08:10:06Z</time>
      </trkpt>
      <trkpt lat="45.07467" lon="2.70398">
        <ele>1297.63</ele>
        <time>2015-07-16T08:10:28Z</time>
      </trkpt>
      <trkpt lat="45.07472" lon="2.70373">
        <ele>1296.98</ele>
        <time>2015-07-16T08:10:46Z</time>
      </trkpt>
      <trkpt lat="45.07465" lon="2.70349">
        <ele>1297.38</ele>
        <time>2015-07-16T08:11:04Z</time>
      </trkpt>
      <trkpt lat="45.07455" lon="2.70328">
        <ele>1296.9</ele>
        <time>2015-07-16T08:11:20Z</time>
      </trkpt>
      <trkpt lat="45.07446" lon="2.70305">
        <ele>1295.81</ele>
        <time>2015-07-16T08:11:41Z</time>
      </trkpt>
      <trkpt lat="45.07444" lon="2.70279">
        <ele>1295.58</ele>
        <time>2015-07-16T08:12:01Z</time>
      </trkpt>
      <trkpt lat="45.07439" lon="2.70255">
        <ele>1295.5</ele>
        <time>2015-07-16T08:12:27Z</time>
      </trkpt>
      <trkpt lat="45.07426" lon="2.70237">
        <ele>1295.24</ele>
        <time>2015-07-16T08:13:27Z</time>
      </trkpt>
      <trkpt lat="45.07409" lon="2.70225">
        <ele>1295.38</ele>
        <time>2015-07-16T08:13:47Z</time>
      </trkpt>
      <trkpt lat="45.07393" lon="2.70211">
        <ele>1295.01</ele>
        <time>2015-07-16T08:14:07Z</time>
      </trkpt>
      <trkpt lat="45.0739" lon="2.70186">
        <ele>1295.2</ele>
        <time>2015-07-16T08:20:18Z</time>
      </trkpt>
      <trkpt lat="45.07397" lon="2.70162">
        <ele>1295.21</ele>
        <time>2015-07-16T08:20:39Z</time>
      </trkpt>
      <trkpt lat="45.07404" lon="2.70137">
        <ele>1295.09</ele>
        <time>2015-07-16T08:20:58Z</time>
      </trkpt>
      <trkpt lat="45.07408" lon="2.70113">
        <ele>1294.63</ele>
        <time>2015-07-16T08:21:24Z</time>
      </trkpt>
      <trkpt lat="45.074" lon="2.7009">
        <ele>1294.66</ele>
        <time>2015-07-16T08:21:50Z</time>
      </trkpt>
      <trkpt lat="45.07387" lon="2.70067">
        <ele>1294.18</ele>
        <time>2015-07-16T08:22:31Z</time>
      </trkpt>
      <trkpt lat="45.07385" lon="2.70041">
        <ele>1295.34</ele>
        <time>2015-07-16T08:23:05Z</time>
      </trkpt>
      <trkpt lat="45.07381" lon="2.70013">
        <ele>1296.35</ele>
        <time>2015-07-16T08:24:04Z</time>
      </trkpt>
      <trkpt lat="45.07396" lon="2.7003">
        <ele>1299.01</ele>
        <time>2015-07-16T08:24:37Z</time>
      </trkpt>
      <trkpt lat="45.07414" lon="2.70036">
        <ele>1300.21</ele>
        <time>2015-07-16T08:25:07Z</time>
      </trkpt>
      <trkpt lat="45.07433" lon="2.70047">
        <ele>1302.35</ele>
        <time>2015-07-16T08:25:49Z</time>
      </trkpt>
      <trkpt lat="45.07453" lon="2.70048">
        <ele>1305.35</ele>
        <time>2015-07-16T08:26:37Z</time>
      </trkpt>
      <trkpt lat="45.07457" lon="2.70024">
        <ele>1311.69</ele>
        <time>2015-07-16T08:27:58Z</time>
      </trkpt>
      <trkpt lat="45.07455" lon="2.69995">
        <ele>1318.02</ele>
        <time>2015-07-16T08:29:00Z</time>
      </trkpt>
      <trkpt lat="45.07469" lon="2.69979">
        <ele>1321.21</ele>
        <time>2015-07-16T08:29:32Z</time>
      </trkpt>
      <trkpt lat="45.07487" lon="2.69979">
        <ele>1324.63</ele>
        <time>2015-07-16T08:30:05Z</time>
      </trkpt>
      <trkpt lat="45.07505" lon="2.69988">
        <ele>1326.82</ele>
        <time>2015-07-16T08:30:31Z</time>
      </trkpt>
      <trkpt lat="45.07515" lon="2.70012">
        <ele>1332.39</ele>
        <time>2015-07-16T08:31:10Z</time>
      </trkpt>
      <trkpt lat="45.07528" lon="2.70032">
        <ele>1338.05</ele>
        <time>2015-07-16T08:32:34Z</time>
      </trkpt>
      <trkpt lat="45.07537" lon="2.70056">
        <ele>1339.47</ele>
        <time>2015-07-16T08:33:16Z</time>
      </trkpt>
      <trkpt lat="45.07549" lon="2.70077">
        <ele>1343.32</ele>
        <time>2015-07-16T08:34:40Z</time>
      </trkpt>
      <trkpt lat="45.07565" lon="2.70089">
        <ele>1344.6</ele>
        <time>2015-07-16T08:35:01Z</time>
      </trkpt>
      <trkpt lat="45.07582" lon="2.70099">
        <ele>1347.03</ele>
        <time>2015-07-16T08:35:28Z</time>
      </trkpt>
      <trkpt lat="45.07598" lon="2.70119">
        <ele>1348.9</ele>
        <time>2015-07-16T08:36:08Z</time>
      </trkpt>
      <trkpt lat="45.07601" lon="2.70146">
        <ele>1415.3</ele>
      </trkpt>
      <trkpt lat="45.07606" lon="2.70169">
        <ele>1419.1</ele>
      </trkpt>
      <trkpt lat="45.07605" lon="2.70193">
        <ele>1358.18</ele>
        <time>2015-07-16T08:37:41Z</time>
      </trkpt>
      <trkpt lat="45.07623" lon="2.70199">
        <ele>1360.19</ele>
        <time>2015-07-16T08:38:10Z</time>
      </trkpt>
      <trkpt lat="45.07634" lon="2.70218">
        <ele>1362.31</ele>
        <time>2015-07-16T08:38:42Z</time>
      </trkpt>
      <trkpt lat="45.07645" lon="2.70236">
        <ele>1422.4</ele>
      </trkpt>
      <trkpt lat="45.07665" lon="2.70238">
        <ele>1375.48</ele>
        <time>2015-07-16T08:41:40Z</time>
      </trkpt>
      <trkpt lat="45.07679" lon="2.70253">
        <ele>1434</ele>
      </trkpt>
      <trkpt lat="45.07692" lon="2.70249">
        <ele>1428.4</ele>
      </trkpt>
      <trkpt lat="45.07702" lon="2.70264">
        <ele>1381.86</ele>
        <time>2015-07-16T08:42:42Z</time>
      </trkpt>
      <trkpt lat="45.07722" lon="2.70261">
        <ele>1383.7</ele>
        <time>2015-07-16T08:43:29Z</time>
      </trkpt>
      <trkpt lat="45.07742" lon="2.70263">
        <ele>1384.07</ele>
        <time>2015-07-16T08:43:54Z</time>
      </trkpt>
      <trkpt lat="45.0776" lon="2.7026">
        <ele>1384.67</ele>
        <time>2015-07-16T08:44:10Z</time>
      </trkpt>
      <trkpt lat="45.07777" lon="2.70251">
        <ele>1385.52</ele>
        <time>2015-07-16T08:44:28Z</time>
      </trkpt>
      <trkpt lat="45.07796" lon="2.70249">
        <ele>1386.81</ele>
        <time>2015-07-16T08:44:57Z</time>
      </trkpt>
      <trkpt lat="45.07816" lon="2.70235">
        <ele>1387.64</ele>
        <time>2015-07-16T08:45:34Z</time>
      </trkpt>
      <trkpt lat="45.07833" lon="2.70227">
        <ele>1387.35</ele>
        <time>2015-07-16T08:47:37Z</time>
      </trkpt>
      <trkpt lat="45.0785" lon="2.7022">
        <ele>1387.89</ele>
        <time>2015-07-16T08:47:59Z</time>
      </trkpt>
      <trkpt lat="45.07868" lon="2.70215">
        <ele>1387.44</ele>
        <time>2015-07-16T08:48:20Z</time>
      </trkpt>
      <trkpt lat="45.07894" lon="2.70208">
        <ele>1383.81</ele>
        <time>2015-07-16T08:49:09Z</time>
      </trkpt>
      <trkpt lat="45.07913" lon="2.70209">
        <ele>1382.96</ele>
        <time>2015-07-16T08:49:24Z</time>
      </trkpt>
      <trkpt lat="45.07933" lon="2.70214">
        <ele>1383</ele>
        <time>2015-07-16T08:49:35Z</time>
      </trkpt>
      <trkpt lat="45.07955" lon="2.70213">
        <ele>1382.87</ele>
        <time>2015-07-16T08:50:04Z</time>
      </trkpt>
      <trkpt lat="45.07973" lon="2.70207">
        <ele>1382.12</ele>
        <time>2015-07-16T08:50:25Z</time>
      </trkpt>
      <trkpt lat="45.07992" lon="2.70207">
        <ele>1382.08</ele>
        <time>2015-07-16T08:50:47Z</time>
      </trkpt>
      <trkpt lat="45.0801" lon="2.70204">
        <ele>1381.49</ele>
        <time>2015-07-16T08:51:11Z</time>
      </trkpt>
      <trkpt lat="45.08028" lon="2.70199">
        <ele>1384.66</ele>
        <time>2015-07-16T08:51:41Z</time>
      </trkpt>
      <trkpt lat="45.08046" lon="2.702">
        <ele>1386.03</ele>
        <time>2015-07-16T08:52:02Z</time>
      </trkpt>
      <trkpt lat="45.08065" lon="2.70205">
        <ele>1386.31</ele>
        <time>2015-07-16T08:52:22Z</time>
      </trkpt>
      <trkpt lat="45.0809" lon="2.70206">
        <ele>1387.35</ele>
        <time>2015-07-16T08:53:08Z</time>
      </trkpt>
      <trkpt lat="45.08108" lon="2.70215">
        <ele>1389.12</ele>
        <time>2015-07-16T08:53:21Z</time>
      </trkpt>
      <trkpt lat="45.08126" lon="2.70216">
        <ele>1389.54</ele>
        <time>2015-07-16T08:53:39Z</time>
      </trkpt>
      <trkpt lat="45.08144" lon="2.70217">
        <ele>1388.21</ele>
        <time>2015-07-16T08:54:04Z</time>
      </trkpt>
      <trkpt lat="45.08162" lon="2.70223">
        <ele>1387.76</ele>
        <time>2015-07-16T08:54:25Z</time>
      </trkpt>
      <trkpt lat="45.0818" lon="2.70225">
        <ele>1388.34</ele>
        <time>2015-07-16T08:54:48Z</time>
      </trkpt>
      <trkpt lat="45.08199" lon="2.70243">
        <ele>1386.2</ele>
        <time>2015-07-16T08:57:22Z</time>
      </trkpt>
      <trkpt lat="45.08213" lon="2.7026">
        <ele>1388.9</ele>
        <time>2015-07-16T08:58:15Z</time>
      </trkpt>
      <trkpt lat="45.08228" lon="2.70275">
        <ele>1392.16</ele>
        <time>2015-07-16T08:58:54Z</time>
      </trkpt>
      <trkpt lat="45.08241" lon="2.70293">
        <ele>1396.13</ele>
        <time>2015-07-16T08:59:40Z</time>
      </trkpt>
      <trkpt lat="45.08253" lon="2.70313">
        <ele>1400.27</ele>
        <time>2015-07-16T09:00:09Z</time>
      </trkpt>
      <trkpt lat="45.08261" lon="2.70336">
        <ele>1404.75</ele>
        <time>2015-07-16T09:00:47Z</time>
      </trkpt>
      <trkpt lat="45.08261" lon="2.70369">
        <ele>1409.98</ele>
        <time>2015-07-16T09:01:54Z</time>
      </trkpt>
      <trkpt lat="45.08268" lon="2.70393">
        <ele>1414.07</ele>
        <time>2015-07-16T09:03:03Z</time>
      </trkpt>
      <trkpt lat="45.08272" lon="2.70418">
        <ele>1417.98</ele>
        <time>2015-07-16T09:03:30Z</time>
      </trkpt>
      <trkpt lat="45.08279" lon="2.70443">
        <ele>1419.43</ele>
        <time>2015-07-16T09:03:51Z</time>
      </trkpt>
      <trkpt lat="45.08287" lon="2.70466">
        <ele>1421.43</ele>
        <time>2015-07-16T09:04:10Z</time>
      </trkpt>
      <trkpt lat="45.08293" lon="2.7049">
        <ele>1423.6</ele>
        <time>2015-07-16T09:04:31Z</time>
      </trkpt>
      <trkpt lat="45.08297" lon="2.70516">
        <ele>1427.14</ele>
        <time>2015-07-16T09:05:00Z</time>
      </trkpt>
      <trkpt lat="45.083" lon="2.70541">
        <ele>1441.58</ele>
        <time>2015-07-16T09:07:09Z</time>
      </trkpt>
      <trkpt lat="45.08295" lon="2.70566">
        <ele>1442.9</ele>
        <time>2015-07-16T09:07:27Z</time>
      </trkpt>
      <trkpt lat="45.08294" lon="2.70592">
        <ele>1448.33</ele>
        <time>2015-07-16T09:08:28Z</time>
      </trkpt>
      <trkpt lat="45.08293" lon="2.70618">
        <ele>1450.49</ele>
        <time>2015-07-16T09:08:44Z</time>
      </trkpt>
      <trkpt lat="45.08288" lon="2.70643">
        <ele>1454.81</ele>
        <time>2015-07-16T09:09:07Z</time>
      </trkpt>
      <trkpt lat="45.08287" lon="2.70669">
        <ele>1458.84</ele>
        <time>2015-07-16T09:09:43Z</time>
      </trkpt>
      <trkpt lat="45.08285" lon="2.70694">
        <ele>1460.67</ele>
        <time>2015-07-16T09:10:02Z</time>
      </trkpt>
      <trkpt lat="45.08282" lon="2.7072">
        <ele>1463.19</ele>
        <time>2015-07-16T09:10:23Z</time>
      </trkpt>
      <trkpt lat="45.08273" lon="2.70743">
        <ele>1467.09</ele>
        <time>2015-07-16T09:10:47Z</time>
      </trkpt>
      <trkpt lat="45.08261" lon="2.70763">
        <ele>1470.32</ele>
        <time>2015-07-16T09:11:07Z</time>
      </trkpt>
      <trkpt lat="45.08251" lon="2.70786">
        <ele>1473.29</ele>
        <time>2015-07-16T09:11:28Z</time>
      </trkpt>
      <trkpt lat="45.08245" lon="2.7081">
        <ele>1476.78</ele>
        <time>2015-07-16T09:11:59Z</time>
      </trkpt>
      <trkpt lat="45.08241" lon="2.70835">
        <ele>1479.33</ele>
        <time>2015-07-16T09:12:22Z</time>
      </trkpt>
      <trkpt lat="45.08233" lon="2.70858">
        <ele>1481.09</ele>
        <time>2015-07-16T09:12:41Z</time>
      </trkpt>
      <trkpt lat="45.0823" lon="2.70885">
        <ele>1483.91</ele>
        <time>2015-07-16T09:12:59Z</time>
      </trkpt>
      <trkpt lat="45.08212" lon="2.70888">
        <ele>1493.89</ele>
        <time>2015-07-16T09:13:32Z</time>
      </trkpt>
      <trkpt lat="45.08198" lon="2.70873">
        <ele>1498.23</ele>
        <time>2015-07-16T09:13:56Z</time>
      </trkpt>
      <trkpt lat="45.08181" lon="2.70859">
        <ele>1501.75</ele>
        <time>2015-07-16T09:14:19Z</time>
      </trkpt>
      <trkpt lat="45.08165" lon="2.70846">
        <ele>1506.4</ele>
        <time>2015-07-16T09:14:35Z</time>
      </trkpt>
      <trkpt lat="45.08155" lon="2.70825">
        <ele>1518.93</ele>
        <time>2015-07-16T09:15:13Z</time>
      </trkpt>
      <trkpt lat="45.08148" lon="2.70801">
        <ele>1522.7</ele>
        <time>2015-07-16T09:15:37Z</time>
      </trkpt>
      <trkpt lat="45.08132" lon="2.7079">
        <ele>1527.2</ele>
        <time>2015-07-16T09:16:08Z</time>
      </trkpt>
      <trkpt lat="45.0812" lon="2.70771">
        <ele>1534.96</ele>
        <time>2015-07-16T09:16:54Z</time>
      </trkpt>
      <trkpt lat="45.08105" lon="2.70756">
        <ele>1543.64</ele>
        <time>2015-07-16T09:17:44Z</time>
      </trkpt>
      <trkpt lat="45.0809" lon="2.70739">
        <ele>1553.24</ele>
        <time>2015-07-16T09:18:36Z</time>
      </trkpt>
      <trkpt lat="45.08077" lon="2.70722">
        <ele>1563.28</ele>
        <time>2015-07-16T09:19:25Z</time>
      </trkpt>
      <trkpt lat="45.08064" lon="2.70704">
        <ele>1570.84</ele>
        <time>2015-07-16T09:20:07Z</time>
      </trkpt>
      <trkpt lat="45.08057" lon="2.7068">
        <ele>1578.03</ele>
        <time>2015-07-16T09:20:37Z</time>
      </trkpt>
      <trkpt lat="45.08054" lon="2.70655">
        <ele>1589.27</ele>
        <time>2015-07-16T09:21:18Z</time>
      </trkpt>
      <trkpt lat="45.08037" lon="2.70645">
        <ele>1598.85</ele>
        <time>2015-07-16T09:22:02Z</time>
      </trkpt>
      <trkpt lat="45.08017" lon="2.70639">
        <ele>1635.66</ele>
        <time>2015-07-16T09:30:57Z</time>
      </trkpt>
      <trkpt lat="45.0805" lon="2.70668">
        <ele>1635.46</ele>
        <time>2015-07-16T09:36:53Z</time>
      </trkpt>
      <trkpt lat="45.08065" lon="2.70684">
        <ele>1624.22</ele>
        <time>2015-07-16T09:40:22Z</time>
      </trkpt>
      <trkpt lat="45.08075" lon="2.70706">
        <ele>1621.68</ele>
        <time>2015-07-16T09:40:52Z</time>
      </trkpt>
      <trkpt lat="45.08083" lon="2.70729">
        <ele>1617.46</ele>
        <time>2015-07-16T09:41:17Z</time>
      </trkpt>
      <trkpt lat="45.081" lon="2.70737">
        <ele>1610.93</ele>
        <time>2015-07-16T09:42:12Z</time>
      </trkpt>
      <trkpt lat="45.08112" lon="2.70757">
        <ele>1602.48</ele>
        <time>2015-07-16T09:42:57Z</time>
      </trkpt>
      <trkpt lat="45.08124" lon="2.70777">
        <ele>1594.58</ele>
        <time>2015-07-16T09:43:39Z</time>
      </trkpt>
      <trkpt lat="45.08143" lon="2.70776">
        <ele>1580.5</ele>
        <time>2015-07-16T09:44:17Z</time>
      </trkpt>
      <trkpt lat="45.08151" lon="2.70799">
        <ele>1560.36</ele>
        <time>2015-07-16T09:45:30Z</time>
      </trkpt>
      <trkpt lat="45.0815" lon="2.70825">
        <ele>1556.06</ele>
        <time>2015-07-16T09:45:54Z</time>
      </trkpt>
      <trkpt lat="45.08162" lon="2.70845">
        <ele>1553.38</ele>
        <time>2015-07-16T09:46:09Z</time>
      </trkpt>
      <trkpt lat="45.0818" lon="2.70846">
        <ele>1544.92</ele>
        <time>2015-07-16T09:46:47Z</time>
      </trkpt>
      <trkpt lat="45.08197" lon="2.70858">
        <ele>1538.79</ele>
        <time>2015-07-16T09:47:06Z</time>
      </trkpt>
      <trkpt lat="45.08213" lon="2.70874">
        <ele>1535.18</ele>
        <time>2015-07-16T09:47:19Z</time>
      </trkpt>
      <trkpt lat="45.08227" lon="2.70891">
        <ele>1530.46</ele>
        <time>2015-07-16T09:47:33Z</time>
      </trkpt>
      <trkpt lat="45.08243" lon="2.70905">
        <ele>1522.92</ele>
        <time>2015-07-16T09:47:51Z</time>
      </trkpt>
      <trkpt lat="45.08248" lon="2.7088">
        <ele>1515.99</ele>
        <time>2015-07-16T09:48:04Z</time>
      </trkpt>
      <trkpt lat="45.08251" lon="2.70854">
        <ele>1508.49</ele>
        <time>2015-07-16T09:48:18Z</time>
      </trkpt>
      <trkpt lat="45.08258" lon="2.7083">
        <ele>1502.05</ele>
        <time>2015-07-16T09:48:31Z</time>
      </trkpt>
      <trkpt lat="45.08259" lon="2.70803">
        <ele>1496.04</ele>
        <time>2015-07-16T09:48:44Z</time>
      </trkpt>
      <trkpt lat="45.08264" lon="2.70778">
        <ele>1489.97</ele>
        <time>2015-07-16T09:48:59Z</time>
      </trkpt>
      <trkpt lat="45.08272" lon="2.70755">
        <ele>1485.65</ele>
        <time>2015-07-16T09:49:14Z</time>
      </trkpt>
      <trkpt lat="45.08285" lon="2.70737">
        <ele>1480.96</ele>
        <time>2015-07-16T09:49:30Z</time>
      </trkpt>
      <trkpt lat="45.08289" lon="2.7071">
        <ele>1479.61</ele>
        <time>2015-07-16T09:49:48Z</time>
      </trkpt>
      <trkpt lat="45.08292" lon="2.70685">
        <ele>1476.62</ele>
        <time>2015-07-16T09:50:04Z</time>
      </trkpt>
      <trkpt lat="45.08285" lon="2.70661">
        <ele>1473.24</ele>
        <time>2015-07-16T09:50:20Z</time>
      </trkpt>
      <trkpt lat="45.08292" lon="2.70638">
        <ele>1468.67</ele>
        <time>2015-07-16T09:50:36Z</time>
      </trkpt>
      <trkpt lat="45.08296" lon="2.70612">
        <ele>1464.25</ele>
        <time>2015-07-16T09:50:58Z</time>
      </trkpt>
      <trkpt lat="45.08296" lon="2.70587">
        <ele>1462.18</ele>
        <time>2015-07-16T09:51:10Z</time>
      </trkpt>
      <trkpt lat="45.08299" lon="2.7056">
        <ele>1458.05</ele>
        <time>2015-07-16T09:51:25Z</time>
      </trkpt>
      <trkpt lat="45.08301" lon="2.70534">
        <ele>1452.09</ele>
        <time>2015-07-16T09:51:45Z</time>
      </trkpt>
      <trkpt lat="45.083" lon="2.70507">
        <ele>1443.25</ele>
        <time>2015-07-16T09:54:17Z</time>
      </trkpt>
      <trkpt lat="45.08302" lon="2.70482">
        <ele>1442.08</ele>
        <time>2015-07-16T09:54:33Z</time>
      </trkpt>
      <trkpt lat="45.08292" lon="2.70458">
        <ele>1440.21</ele>
        <time>2015-07-16T09:54:50Z</time>
      </trkpt>
      <trkpt lat="45.08284" lon="2.70435">
        <ele>1438.24</ele>
        <time>2015-07-16T09:55:03Z</time>
      </trkpt>
      <trkpt lat="45.08275" lon="2.70412">
        <ele>1432.52</ele>
        <time>2015-07-16T09:55:24Z</time>
      </trkpt>
      <trkpt lat="45.0827" lon="2.70387">
        <ele>1426.07</ele>
        <time>2015-07-16T09:55:49Z</time>
      </trkpt>
      <trkpt lat="45.08263" lon="2.70362">
        <ele>1420.6</ele>
        <time>2015-07-16T09:56:21Z</time>
      </trkpt>
      <trkpt lat="45.08258" lon="2.70338">
        <ele>1416.34</ele>
        <time>2015-07-16T09:56:48Z</time>
      </trkpt>
      <trkpt lat="45.08252" lon="2.70312">
        <ele>1412.55</ele>
        <time>2015-07-16T09:57:27Z</time>
      </trkpt>
      <trkpt lat="45.08241" lon="2.70291">
        <ele>1408.45</ele>
        <time>2015-07-16T09:58:02Z</time>
      </trkpt>
      <trkpt lat="45.08226" lon="2.70277">
        <ele>1406.25</ele>
        <time>2015-07-16T09:58:43Z</time>
      </trkpt>
      <trkpt lat="45.0821" lon="2.70263">
        <ele>1405.13</ele>
        <time>2015-07-16T09:59:11Z</time>
      </trkpt>
      <trkpt lat="45.08197" lon="2.70246">
        <ele>1403.75</ele>
        <time>2015-07-16T09:59:30Z</time>
      </trkpt>
      <trkpt lat="45.08182" lon="2.70228">
        <ele>1401.58</ele>
        <time>2015-07-16T09:59:59Z</time>
      </trkpt>
      <trkpt lat="45.08165" lon="2.7022">
        <ele>1398.26</ele>
        <time>2015-07-16T10:00:29Z</time>
      </trkpt>
      <trkpt lat="45.08147" lon="2.70216">
        <ele>1395.89</ele>
        <time>2015-07-16T10:00:48Z</time>
      </trkpt>
      <trkpt lat="45.08128" lon="2.70211">
        <ele>1394.03</ele>
        <time>2015-07-16T10:01:11Z</time>
      </trkpt>
      <trkpt lat="45.0811" lon="2.70217">
        <ele>1392.21</ele>
        <time>2015-07-16T10:01:35Z</time>
      </trkpt>
      <trkpt lat="45.08092" lon="2.70212">
        <ele>1390.89</ele>
        <time>2015-07-16T10:02:12Z</time>
      </trkpt>
      <trkpt lat="45.08075" lon="2.70202">
        <ele>1388.52</ele>
        <time>2015-07-16T10:02:41Z</time>
      </trkpt>
      <trkpt lat="45.08057" lon="2.70197">
        <ele>1387.29</ele>
        <time>2015-07-16T10:03:00Z</time>
      </trkpt>
      <trkpt lat="45.08038" lon="2.70191">
        <ele>1385.66</ele>
        <time>2015-07-16T10:03:19Z</time>
      </trkpt>
      <trkpt lat="45.08019" lon="2.70191">
        <ele>1384.38</ele>
        <time>2015-07-16T10:03:37Z</time>
      </trkpt>
      <trkpt lat="45.08001" lon="2.70193">
        <ele>1382.94</ele>
        <time>2015-07-16T10:03:55Z</time>
      </trkpt>
      <trkpt lat="45.07983" lon="2.70198">
        <ele>1381.99</ele>
        <time>2015-07-16T10:04:15Z</time>
      </trkpt>
      <trkpt lat="45.07964" lon="2.70202">
        <ele>1380.76</ele>
        <time>2015-07-16T10:04:30Z</time>
      </trkpt>
      <trkpt lat="45.07946" lon="2.70202">
        <ele>1379.57</ele>
        <time>2015-07-16T10:04:48Z</time>
      </trkpt>
      <trkpt lat="45.07928" lon="2.70207">
        <ele>1378.38</ele>
        <time>2015-07-16T10:05:05Z</time>
      </trkpt>
      <trkpt lat="45.07911" lon="2.70217">
        <ele>1375.94</ele>
        <time>2015-07-16T10:05:24Z</time>
      </trkpt>
      <trkpt lat="45.07893" lon="2.7021">
        <ele>1375.04</ele>
        <time>2015-07-16T10:05:40Z</time>
      </trkpt>
      <trkpt lat="45.07875" lon="2.70211">
        <ele>1372.94</ele>
        <time>2015-07-16T10:06:03Z</time>
      </trkpt>
      <trkpt lat="45.07857" lon="2.70215">
        <ele>1372.49</ele>
        <time>2015-07-16T10:06:23Z</time>
      </trkpt>
      <trkpt lat="45.07838" lon="2.70221">
        <ele>1371.35</ele>
        <time>2015-07-16T10:06:46Z</time>
      </trkpt>
      <trkpt lat="45.07823" lon="2.70235">
        <ele>1371.45</ele>
        <time>2015-07-16T10:07:08Z</time>
      </trkpt>
      <trkpt lat="45.07805" lon="2.70236">
        <ele>1371.33</ele>
        <time>2015-07-16T10:07:33Z</time>
      </trkpt>
      <trkpt lat="45.07787" lon="2.70242">
        <ele>1370.94</ele>
        <time>2015-07-16T10:07:55Z</time>
      </trkpt>
      <trkpt lat="45.0777" lon="2.70251">
        <ele>1370.64</ele>
        <time>2015-07-16T10:08:08Z</time>
      </trkpt>
      <trkpt lat="45.07752" lon="2.70255">
        <ele>1370.89</ele>
        <time>2015-07-16T10:08:29Z</time>
      </trkpt>
      <trkpt lat="45.07734" lon="2.70263">
        <ele>1371.43</ele>
        <time>2015-07-16T10:08:48Z</time>
      </trkpt>
      <trkpt lat="45.07715" lon="2.70264">
        <ele>1371.49</ele>
        <time>2015-07-16T10:09:05Z</time>
      </trkpt>
      <trkpt lat="45.07698" lon="2.70257">
        <ele>1371.87</ele>
        <time>2015-07-16T10:09:25Z</time>
      </trkpt>
      <trkpt lat="45.0768" lon="2.70246">
        <ele>1371.33</ele>
        <time>2015-07-16T10:09:49Z</time>
      </trkpt>
      <trkpt lat="45.07664" lon="2.70236">
        <ele>1371.06</ele>
        <time>2015-07-16T10:10:12Z</time>
      </trkpt>
      <trkpt lat="45.07646" lon="2.70227">
        <ele>1372.25</ele>
        <time>2015-07-16T10:10:39Z</time>
      </trkpt>
      <trkpt lat="45.0763" lon="2.70217">
        <ele>1372.38</ele>
        <time>2015-07-16T10:11:01Z</time>
      </trkpt>
      <trkpt lat="45.07615" lon="2.70204">
        <ele>1418.4</ele>
      </trkpt>
      <trkpt lat="45.07606" lon="2.70185">
        <ele>1371.21</ele>
        <time>2015-07-16T10:11:56Z</time>
      </trkpt>
      <trkpt lat="45.07598" lon="2.7016">
        <ele>1416.8</ele>
      </trkpt>
      <trkpt lat="45.07595" lon="2.70135">
        <ele>1368.31</ele>
        <time>2015-07-16T10:13:14Z</time>
      </trkpt>
      <trkpt lat="45.0759" lon="2.7011">
        <ele>1367.51</ele>
        <time>2015-07-16T10:13:32Z</time>
      </trkpt>
      <trkpt lat="45.07579" lon="2.70089">
        <ele>1366.04</ele>
        <time>2015-07-16T10:13:54Z</time>
      </trkpt>
      <trkpt lat="45.07563" lon="2.70078">
        <ele>1365.03</ele>
        <time>2015-07-16T10:14:16Z</time>
      </trkpt>
      <trkpt lat="45.07546" lon="2.70067">
        <ele>1364.32</ele>
        <time>2015-07-16T10:14:43Z</time>
      </trkpt>
      <trkpt lat="45.0753" lon="2.70055">
        <ele>1363.37</ele>
        <time>2015-07-16T10:15:03Z</time>
      </trkpt>
      <trkpt lat="45.07523" lon="2.70031">
        <ele>1361.83</ele>
        <time>2015-07-16T10:15:27Z</time>
      </trkpt>
      <trkpt lat="45.07515" lon="2.70008">
        <ele>1358.73</ele>
        <time>2015-07-16T10:15:58Z</time>
      </trkpt>
      <trkpt lat="45.07506" lon="2.69984">
        <ele>1355.79</ele>
        <time>2015-07-16T10:16:24Z</time>
      </trkpt>
      <trkpt lat="45.0749" lon="2.69973">
        <ele>1354.51</ele>
        <time>2015-07-16T10:16:46Z</time>
      </trkpt>
      <trkpt lat="45.07472" lon="2.69965">
        <ele>1353.11</ele>
        <time>2015-07-16T10:17:04Z</time>
      </trkpt>
      <trkpt lat="45.07459" lon="2.69984">
        <ele>1351.59</ele>
        <time>2015-07-16T10:17:26Z</time>
      </trkpt>
      <trkpt lat="45.07449" lon="2.70004">
        <ele>1349.73</ele>
        <time>2015-07-16T10:17:45Z</time>
      </trkpt>
      <trkpt lat="45.07452" lon="2.7003">
        <ele>1347.84</ele>
        <time>2015-07-16T10:18:08Z</time>
      </trkpt>
      <trkpt lat="45.07458" lon="2.70054">
        <ele>1346.56</ele>
        <time>2015-07-16T10:18:28Z</time>
      </trkpt>
      <trkpt lat="45.07439" lon="2.70054">
        <ele>1344.74</ele>
        <time>2015-07-16T10:19:09Z</time>
      </trkpt>
      <trkpt lat="45.07421" lon="2.70045">
        <ele>1344.19</ele>
        <time>2015-07-16T10:19:26Z</time>
      </trkpt>
      <trkpt lat="45.07403" lon="2.70038">
        <ele>1343.43</ele>
        <time>2015-07-16T10:19:44Z</time>
      </trkpt>
      <trkpt lat="45.07385" lon="2.7004">
        <ele>1342.43</ele>
        <time>2015-07-16T10:20:02Z</time>
      </trkpt>
      <trkpt lat="45.07386" lon="2.70066">
        <ele>1339.91</ele>
        <time>2015-07-16T10:20:27Z</time>
      </trkpt>
      <trkpt lat="45.07391" lon="2.70092">
        <ele>1338.24</ele>
        <time>2015-07-16T10:20:48Z</time>
      </trkpt>
      <trkpt lat="45.07401" lon="2.70114">
        <ele>1336.08</ele>
        <time>2015-07-16T10:21:05Z</time>
      </trkpt>
      <trkpt lat="45.07404" lon="2.7014">
        <ele>1333.45</ele>
        <time>2015-07-16T10:21:28Z</time>
      </trkpt>
      <trkpt lat="45.07396" lon="2.70163">
        <ele>1329.31</ele>
        <time>2015-07-16T10:21:48Z</time>
      </trkpt>
      <trkpt lat="45.07389" lon="2.70188">
        <ele>1324.01</ele>
        <time>2015-07-16T10:22:07Z</time>
      </trkpt>
      <trkpt lat="45.0739" lon="2.70214">
        <ele>1319.31</ele>
        <time>2015-07-16T10:22:22Z</time>
      </trkpt>
      <trkpt lat="45.07404" lon="2.70233">
        <ele>1315.4</ele>
        <time>2015-07-16T10:22:40Z</time>
      </trkpt>
      <trkpt lat="45.0742" lon="2.70247">
        <ele>1312.98</ele>
        <time>2015-07-16T10:22:57Z</time>
      </trkpt>
      <trkpt lat="45.07436" lon="2.70261">
        <ele>1308.93</ele>
        <time>2015-07-16T10:24:44Z</time>
      </trkpt>
      <trkpt lat="45.07447" lon="2.70282">
        <ele>1306.95</ele>
        <time>2015-07-16T10:25:04Z</time>
      </trkpt>
      <trkpt lat="45.07451" lon="2.70308">
        <ele>1306.1</ele>
        <time>2015-07-16T10:25:25Z</time>
      </trkpt>
      <trkpt lat="45.07454" lon="2.70333">
        <ele>1302.68</ele>
        <time>2015-07-16T10:26:02Z</time>
      </trkpt>
      <trkpt lat="45.07463" lon="2.70355">
        <ele>1301.24</ele>
        <time>2015-07-16T10:26:16Z</time>
      </trkpt>
      <trkpt lat="45.07467" lon="2.70381">
        <ele>1300.51</ele>
        <time>2015-07-16T10:26:32Z</time>
      </trkpt>
      <trkpt lat="45.07464" lon="2.70408">
        <ele>1299.63</ele>
        <time>2015-07-16T10:26:57Z</time>
      </trkpt>
      <trkpt lat="45.07462" lon="2.70434">
        <ele>1298.43</ele>
        <time>2015-07-16T10:27:20Z</time>
      </trkpt>
      <trkpt lat="45.07448" lon="2.70452">
        <ele>1297.91</ele>
        <time>2015-07-16T10:27:43Z</time>
      </trkpt>
      <trkpt lat="45.07432" lon="2.70465">
        <ele>1297.49</ele>
        <time>2015-07-16T10:28:02Z</time>
      </trkpt>
      <trkpt lat="45.07416" lon="2.70478">
        <ele>1297.34</ele>
        <time>2015-07-16T10:28:21Z</time>
      </trkpt>
      <trkpt lat="45.07397" lon="2.70479">
        <ele>1296.33</ele>
        <time>2015-07-16T10:28:45Z</time>
      </trkpt>
      <trkpt lat="45.07379" lon="2.70477">
        <ele>1295.67</ele>
        <time>2015-07-16T10:29:06Z</time>
      </trkpt>
      <trkpt lat="45.07361" lon="2.70477">
        <ele>1294.64</ele>
        <time>2015-07-16T10:29:29Z</time>
      </trkpt>
      <trkpt lat="45.07342" lon="2.70486">
        <ele>1292.63</ele>
        <time>2015-07-16T10:29:53Z</time>
      </trkpt>
      <trkpt lat="45.07326" lon="2.70498">
        <ele>1290.85</ele>
        <time>2015-07-16T10:30:13Z</time>
      </trkpt>
      <trkpt lat="45.07311" lon="2.70513">
        <ele>1289.45</ele>
        <time>2015-07-16T10:30:29Z</time>
      </trkpt>
      <trkpt lat="45.07296" lon="2.70528">
        <ele>1286.94</ele>
        <time>2015-07-16T10:30:52Z</time>
      </trkpt>
      <trkpt lat="45.07282" lon="2.70544">
        <ele>1284.18</ele>
        <time>2015-07-16T10:31:17Z</time>
      </trkpt>
      <trkpt lat="45.07276" lon="2.70573">
        <ele>1278.23</ele>
        <time>2015-07-16T10:34:30Z</time>
      </trkpt>
      <trkpt lat="45.07266" lon="2.70595">
        <ele>1270.89</ele>
        <time>2015-07-16T10:34:51Z</time>
      </trkpt>
      <trkpt lat="45.07265" lon="2.70622">
        <ele>1270.02</ele>
        <time>2015-07-16T10:35:13Z</time>
      </trkpt>
      <trkpt lat="45.07265" lon="2.70648">
        <ele>1269.58</ele>
        <time>2015-07-16T10:35:26Z</time>
      </trkpt>
      <trkpt lat="45.07265" lon="2.70674">
        <ele>1268.97</ele>
        <time>2015-07-16T10:35:44Z</time>
      </trkpt>
      <trkpt lat="45.07275" lon="2.70697">
        <ele>1268.18</ele>
        <time>2015-07-16T10:36:00Z</time>
      </trkpt>
      <trkpt lat="45.07272" lon="2.70723">
        <ele>1264.07</ele>
        <time>2015-07-16T10:37:24Z</time>
      </trkpt>
      <trkpt lat="45.07269" lon="2.70748">
        <ele>1262.84</ele>
        <time>2015-07-16T10:37:43Z</time>
      </trkpt>
      <trkpt lat="45.07268" lon="2.70774">
        <ele>1260.17</ele>
        <time>2015-07-16T10:37:59Z</time>
      </trkpt>
      <trkpt lat="45.0727" lon="2.708">
        <ele>1257.54</ele>
        <time>2015-07-16T10:38:15Z</time>
      </trkpt>
      <trkpt lat="45.07279" lon="2.70823">
        <ele>1255.79</ele>
        <time>2015-07-16T10:38:33Z</time>
      </trkpt>
      <trkpt lat="45.07294" lon="2.70839">
        <ele>1252.99</ele>
        <time>2015-07-16T10:39:00Z</time>
      </trkpt>
      <trkpt lat="45.07311" lon="2.70849">
        <ele>1251.92</ele>
        <time>2015-07-16T10:39:20Z</time>
      </trkpt>
      <trkpt lat="45.07325" lon="2.70865">
        <ele>1250.43</ele>
        <time>2015-07-16T10:39:53Z</time>
      </trkpt>
      <trkpt lat="45.07324" lon="2.70891">
        <ele>1248.71</ele>
        <time>2015-07-16T10:40:15Z</time>
      </trkpt>
      <trkpt lat="45.07323" lon="2.70918">
        <ele>1247.64</ele>
        <time>2015-07-16T10:40:35Z</time>
      </trkpt>
      <trkpt lat="45.07327" lon="2.70943">
        <ele>1246.19</ele>
        <time>2015-07-16T10:40:52Z</time>
      </trkpt>
      <trkpt lat="45.0733" lon="2.70968">
        <ele>1244.94</ele>
        <time>2015-07-16T10:41:11Z</time>
      </trkpt>
      <trkpt lat="45.0733" lon="2.70994">
        <ele>1243.66</ele>
        <time>2015-07-16T10:41:30Z</time>
      </trkpt>
      <trkpt lat="45.07329" lon="2.7102">
        <ele>1242.12</ele>
        <time>2015-07-16T10:41:49Z</time>
      </trkpt>
      <trkpt lat="45.07326" lon="2.71046">
        <ele>1239.48</ele>
        <time>2015-07-16T10:42:09Z</time>
      </trkpt>
      <trkpt lat="45.07322" lon="2.71071">
        <ele>1236.48</ele>
        <time>2015-07-16T10:42:29Z</time>
      </trkpt>
      <trkpt lat="45.07313" lon="2.71094">
        <ele>1231.33</ele>
        <time>2015-07-16T10:42:55Z</time>
      </trkpt>
      <trkpt lat="45.07302" lon="2.71115">
        <ele>1227.53</ele>
        <time>2015-07-16T10:43:15Z</time>
      </trkpt>
      <trkpt lat="45.07294" lon="2.71139">
        <ele>1223.6</ele>
        <time>2015-07-16T10:43:35Z</time>
      </trkpt>
      <trkpt lat="45.07292" lon="2.71165">
        <ele>1218.77</ele>
        <time>2015-07-16T10:43:54Z</time>
      </trkpt>
      <trkpt lat="45.07297" lon="2.7119">
        <ele>1214.37</ele>
        <time>2015-07-16T10:44:15Z</time>
      </trkpt>
      <trkpt lat="45.07309" lon="2.71209">
        <ele>1211.87</ele>
        <time>2015-07-16T10:44:35Z</time>
      </trkpt>
      <trkpt lat="45.07325" lon="2.7122">
        <ele>1208.97</ele>
        <time>2015-07-16T10:45:00Z</time>
      </trkpt>
      <trkpt lat="45.07307" lon="2.71223">
        <ele>1206.27</ele>
        <time>2015-07-16T10:46:16Z</time>
      </trkpt>
      <trkpt lat="45.07289" lon="2.71216">
        <ele>1204.75</ele>
        <time>2015-07-16T10:46:36Z</time>
      </trkpt>
      <trkpt lat="45.07271" lon="2.71209">
        <ele>1203.29</ele>
        <time>2015-07-16T10:46:56Z</time>
      </trkpt>
      <trkpt lat="45.07254" lon="2.712">
        <ele>1202.26</ele>
        <time>2015-07-16T10:47:15Z</time>
      </trkpt>
      <trkpt lat="45.07238" lon="2.71188">
        <ele>1200.91</ele>
        <time>2015-07-16T10:47:37Z</time>
      </trkpt>
      <trkpt lat="45.07227" lon="2.71168">
        <ele>1198.75</ele>
        <time>2015-07-16T10:47:59Z</time>
      </trkpt>
      <trkpt lat="45.07222" lon="2.71143">
        <ele>1196.1</ele>
        <time>2015-07-16T10:48:21Z</time>
      </trkpt>
      <trkpt lat="45.07204" lon="2.71149">
        <ele>1191.05</ele>
        <time>2015-07-16T10:48:45Z</time>
      </trkpt>
      <trkpt lat="45.07189" lon="2.71165">
        <ele>1187.37</ele>
        <time>2015-07-16T10:49:07Z</time>
      </trkpt>
      <trkpt lat="45.07175" lon="2.71183">
        <ele>1183.92</ele>
        <time>2015-07-16T10:49:30Z</time>
      </trkpt>
      <trkpt lat="45.07168" lon="2.71207">
        <ele>1180.28</ele>
        <time>2015-07-16T10:49:50Z</time>
      </trkpt>
      <trkpt lat="45.0717" lon="2.71232">
        <ele>1177.05</ele>
        <time>2015-07-16T10:50:07Z</time>
      </trkpt>
      <trkpt lat="45.07177" lon="2.71256">
        <ele>1172.58</ele>
        <time>2015-07-16T10:50:28Z</time>
      </trkpt>
      <trkpt lat="45.07193" lon="2.7127">
        <ele>1167.05</ele>
        <time>2015-07-16T10:51:00Z</time>
      </trkpt>
      <trkpt lat="45.07209" lon="2.71282">
        <ele>1163.9</ele>
        <time>2015-07-16T10:51:24Z</time>
      </trkpt>
      <trkpt lat="45.07231" lon="2.7129">
        <ele>1160.56</ele>
        <time>2015-07-16T10:52:25Z</time>
      </trkpt>
      <trkpt lat="45.07246" lon="2.71305">
        <ele>1158.17</ele>
        <time>2015-07-16T10:52:46Z</time>
      </trkpt>
      <trkpt lat="45.07232" lon="2.71321">
        <ele>1155.74</ele>
        <time>2015-07-16T10:53:26Z</time>
      </trkpt>
      <trkpt lat="45.07213" lon="2.7132">
        <ele>1154.5</ele>
        <time>2015-07-16T10:53:49Z</time>
      </trkpt>
      <trkpt lat="45.07196" lon="2.71326">
        <ele>1152.93</ele>
        <time>2015-07-16T10:54:17Z</time>
      </trkpt>
      <trkpt lat="45.07177" lon="2.7133">
        <ele>1151.55</ele>
        <time>2015-07-16T10:54:38Z</time>
      </trkpt>
      <trkpt lat="45.07159" lon="2.71332">
        <ele>1149.47</ele>
        <time>2015-07-16T10:54:58Z</time>
      </trkpt>
      <trkpt lat="45.07141" lon="2.71324">
        <ele>1147.78</ele>
        <time>2015-07-16T10:55:24Z</time>
      </trkpt>
      <trkpt lat="45.07125" lon="2.71311">
        <ele>1145.49</ele>
        <time>2015-07-16T10:55:50Z</time>
      </trkpt>
      <trkpt lat="45.0711" lon="2.71296">
        <ele>1144</ele>
        <time>2015-07-16T10:56:23Z</time>
      </trkpt>
      <trkpt lat="45.07096" lon="2.71278">
        <ele>1142.28</ele>
        <time>2015-07-16T10:56:50Z</time>
      </trkpt>
      <trkpt lat="45.07082" lon="2.71261">
        <ele>1141.18</ele>
        <time>2015-07-16T10:57:11Z</time>
      </trkpt>
      <trkpt lat="45.07065" lon="2.71268">
        <ele>1137.18</ele>
        <time>2015-07-16T10:57:36Z</time>
      </trkpt>
      <trkpt lat="45.0706" lon="2.71293">
        <ele>1133.14</ele>
        <time>2015-07-16T10:57:55Z</time>
      </trkpt>
      <trkpt lat="45.07066" lon="2.71317">
        <ele>1127.77</ele>
        <time>2015-07-16T10:58:31Z</time>
      </trkpt>
      <trkpt lat="45.07078" lon="2.71338">
        <ele>1125.64</ele>
        <time>2015-07-16T10:58:52Z</time>
      </trkpt>
      <trkpt lat="45.07095" lon="2.71351">
        <ele>1123.23</ele>
        <time>2015-07-16T10:59:20Z</time>
      </trkpt>
      <trkpt lat="45.07096" lon="2.71377">
        <ele>1121.07</ele>
        <time>2015-07-16T10:59:42Z</time>
      </trkpt>
      <trkpt lat="45.07106" lon="2.71399">
        <ele>1118.46</ele>
        <time>2015-07-16T11:00:05Z</time>
      </trkpt>
      <trkpt lat="45.07121" lon="2.71413">
        <ele>1117.48</ele>
        <time>2015-07-16T11:00:32Z</time>
      </trkpt>
      <trkpt lat="45.07137" lon="2.71427">
        <ele>1114.67</ele>
        <time>2015-07-16T11:00:54Z</time>
      </trkpt>
      <trkpt lat="45.07154" lon="2.71438">
        <ele>1110.61</ele>
        <time>2015-07-16T11:01:11Z</time>
      </trkpt>
      <trkpt lat="45.07166" lon="2.71457">
        <ele>1104.99</ele>
        <time>2015-07-16T11:01:40Z</time>
      </trkpt>
      <trkpt lat="45.07179" lon="2.71475">
        <ele>1101.17</ele>
        <time>2015-07-16T11:02:03Z</time>
      </trkpt>
      <trkpt lat="45.0718" lon="2.71501">
        <ele>1092.07</ele>
        <time>2015-07-16T11:02:35Z</time>
      </trkpt>
      <trkpt lat="45.07194" lon="2.71517">
        <ele>1086.52</ele>
        <time>2015-07-16T11:02:52Z</time>
      </trkpt>
      <trkpt lat="45.0721" lon="2.71528">
        <ele>1083.39</ele>
        <time>2015-07-16T11:03:07Z</time>
      </trkpt>
      <trkpt lat="45.07228" lon="2.71533">
        <ele>1080.66</ele>
        <time>2015-07-16T11:03:24Z</time>
      </trkpt>
      <trkpt lat="45.07246" lon="2.71541">
        <ele>1076.87</ele>
        <time>2015-07-16T11:03:45Z</time>
      </trkpt>
      <trkpt lat="45.07262" lon="2.71552">
        <ele>1075.2</ele>
        <time>2015-07-16T11:04:07Z</time>
      </trkpt>
      <trkpt lat="45.07274" lon="2.71573">
        <ele>1072.11</ele>
        <time>2015-07-16T11:04:26Z</time>
      </trkpt>
      <trkpt lat="45.07281" lon="2.71597">
        <ele>1069.09</ele>
        <time>2015-07-16T11:04:45Z</time>
      </trkpt>
      <trkpt lat="45.07283" lon="2.71623">
        <ele>1066.49</ele>
        <time>2015-07-16T11:05:02Z</time>
      </trkpt>
    </trkseg>
  </trk>
</gpx>